createdAt,value
2023-01-27T00:00:13.499Z,10.54
2023-01-27T00:02:42.816Z,10.47
2023-01-27T00:05:11.154Z,10.45
2023-01-27T00:07:38.311Z,10.52
2023-01-27T00:10:06.549Z,10.55
2023-01-27T00:12:51.684Z,10.62
2023-01-27T00:15:18.295Z,10.58
2023-01-27T00:17:44.759Z,10.64
2023-01-27T00:20:12.062Z,10.65
2023-01-27T00:22:59.019Z,10.51
2023-01-27T00:25:25.702Z,10.43
2023-01-27T00:27:52.279Z,10.54
2023-01-27T00:30:19.071Z,10.45
2023-01-27T00:33:04.253Z,10.54
2023-01-27T00:35:30.809Z,10.47
2023-01-27T00:37:57.324Z,10.53
2023-01-27T00:40:23.880Z,10.32
2023-01-27T00:42:50.396Z,10.27
2023-01-27T00:45:49.365Z,10.52
2023-01-27T00:48:15.988Z,10.74
2023-01-27T00:50:44.934Z,10.71
2023-01-27T00:53:11.617Z,10.61
2023-01-27T00:55:38.135Z,10.65
2023-01-27T00:58:06.158Z,10.63
2023-01-27T01:00:32.767Z,10.73
2023-01-27T01:02:59.465Z,10.65
2023-01-27T01:05:26.008Z,10.51
2023-01-27T01:07:52.503Z,10.46
2023-01-27T01:10:19.058Z,10.50
2023-01-27T01:12:45.702Z,10.45
2023-01-27T01:15:12.285Z,10.42
2023-01-27T01:17:39.034Z,10.55
2023-01-27T01:20:06.219Z,10.49
2023-01-27T01:22:32.770Z,10.55
2023-01-27T01:24:59.239Z,10.35
2023-01-27T01:27:26.278Z,10.42
2023-01-27T01:29:52.938Z,10.59
2023-01-27T01:32:19.592Z,10.65
2023-01-27T01:34:46.158Z,10.65
2023-01-27T01:37:12.744Z,10.76
2023-01-27T01:39:40.896Z,10.85
2023-01-27T01:42:07.461Z,10.81
2023-01-27T01:44:34.064Z,10.73
2023-01-27T01:47:00.702Z,10.67
2023-01-27T01:49:32.957Z,10.40
2023-01-27T01:52:03.959Z,10.29
2023-01-27T01:54:37.483Z,10.10
2023-01-27T01:57:10.438Z,10.20
2023-01-27T01:59:42.338Z,10.10
2023-01-27T02:02:12.832Z,10.10
2023-01-27T02:04:48.222Z,10.08
2023-01-27T02:07:35.109Z,10.19
2023-01-27T02:10:02.013Z,10.03
2023-01-27T02:12:29.737Z,9.98
2023-01-27T02:14:56.589Z,9.96
2023-01-27T02:17:23.195Z,9.85
2023-01-27T02:20:08.517Z,9.93
2023-01-27T02:23:12.901Z,10.01
2023-01-27T02:25:51.045Z,10.01
2023-01-27T02:28:17.775Z,9.94
2023-01-27T02:30:44.790Z,10.09
2023-01-27T02:33:15.497Z,10.06
2023-01-27T02:35:54.139Z,10.10
2023-01-27T02:38:21.538Z,10.53
2023-01-27T02:40:53.724Z,10.94
2023-01-27T02:43:20.442Z,10.59
2023-01-27T02:45:47.441Z,10.41
2023-01-27T02:48:15.221Z,10.37
2023-01-27T02:50:41.758Z,10.56
2023-01-27T02:53:08.588Z,10.49
2023-01-27T02:55:36.392Z,10.42
2023-01-27T02:58:03.762Z,10.32
2023-01-27T03:00:46.989Z,10.38
2023-01-27T03:03:13.507Z,10.44
2023-01-27T03:05:40.965Z,10.44
2023-01-27T03:08:07.853Z,10.56
2023-01-27T03:10:35.293Z,10.71
2023-01-27T03:13:02.219Z,10.56
2023-01-27T03:15:47.645Z,10.56
2023-01-27T03:18:15.980Z,10.66
2023-01-27T03:20:46.154Z,10.83
2023-01-27T03:23:15.561Z,10.60
2023-01-27T03:25:48.226Z,10.65
2023-01-27T03:28:15.030Z,10.74
2023-01-27T03:31:19.147Z,11.02
2023-01-27T03:33:53.054Z,10.85
2023-01-27T03:36:47.170Z,11.03
2023-01-27T03:39:33.006Z,10.65
2023-01-27T03:42:18.274Z,10.65
2023-01-27T03:45:04.801Z,10.60
2023-01-27T03:47:31.792Z,10.58
2023-01-27T03:49:58.347Z,10.62
2023-01-27T03:52:24.882Z,10.66
2023-01-27T03:54:51.370Z,10.75
2023-01-27T03:57:18.005Z,10.80
2023-01-27T03:59:44.562Z,10.91
2023-01-27T04:02:29.911Z,10.86
2023-01-27T04:05:15.818Z,10.87
2023-01-27T04:07:42.510Z,10.88
2023-01-27T04:10:09.915Z,10.87
2023-01-27T04:12:36.494Z,10.80
2023-01-27T04:15:03.321Z,10.79
2023-01-27T04:17:30.725Z,11.12
2023-01-27T04:19:58.343Z,11.01
2023-01-27T04:22:24.912Z,11.19
2023-01-27T04:24:51.458Z,11.20
2023-01-27T04:27:20.236Z,11.06
2023-01-27T04:29:46.948Z,11.16
2023-01-27T04:32:14.160Z,11.36
2023-01-27T04:34:41.926Z,11.48
2023-01-27T04:37:09.677Z,11.23
2023-01-27T04:39:36.469Z,11.37
2023-01-27T04:42:03.578Z,11.54
2023-01-27T04:44:30.362Z,11.68
2023-01-27T04:46:57.024Z,11.56
2023-01-27T04:49:23.605Z,11.61
2023-01-27T04:51:50.181Z,11.91
2023-01-27T04:54:17.357Z,12.32
2023-01-27T04:56:59.548Z,12.24
2023-01-27T04:59:27.083Z,12.31
2023-01-27T05:01:53.892Z,12.14
2023-01-27T05:04:20.638Z,12.24
2023-01-27T05:06:47.312Z,11.93
2023-01-27T05:09:13.933Z,12.01
2023-01-27T05:11:40.486Z,12.15
2023-01-27T05:14:07.069Z,12.02
2023-01-27T05:16:33.758Z,11.76
2023-01-27T05:19:00.450Z,11.88
2023-01-27T05:21:30.925Z,12.08
2023-01-27T05:23:57.868Z,12.34
2023-01-27T05:26:27.097Z,12.28
2023-01-27T05:28:56.392Z,12.30
2023-01-27T05:31:25.959Z,12.37
2023-01-27T05:33:54.256Z,12.24
2023-01-27T05:36:22.149Z,12.34
2023-01-27T05:38:49.161Z,12.35
2023-01-27T05:41:17.781Z,11.98
2023-01-27T05:43:46.080Z,12.06
2023-01-27T05:46:18.825Z,11.72
2023-01-27T05:48:48.353Z,11.76
2023-01-27T05:51:16.550Z,11.87
2023-01-27T05:53:44.397Z,11.73
2023-01-27T05:56:13.208Z,11.84
2023-01-27T05:58:40.231Z,11.95
2023-01-27T06:01:11.968Z,11.73
2023-01-27T06:03:38.948Z,11.65
2023-01-27T06:06:06.749Z,11.34
2023-01-27T06:08:33.833Z,11.15
2023-01-27T06:11:00.644Z,11.34
2023-01-27T06:13:27.292Z,11.11
2023-01-27T06:15:55.775Z,11.09
2023-01-27T06:18:23.262Z,11.01
2023-01-27T06:20:49.849Z,10.92
2023-01-27T06:23:18.114Z,10.98
2023-01-27T06:25:47.137Z,10.89
2023-01-27T06:28:27.888Z,10.76
2023-01-27T06:30:56.495Z,10.77
2023-01-27T06:33:23.416Z,10.81
2023-01-27T06:35:50.045Z,10.77
2023-01-27T06:38:17.094Z,10.61
2023-01-27T06:40:44.220Z,10.83
2023-01-27T06:43:13.576Z,10.93
2023-01-27T06:45:40.285Z,11.09
2023-01-27T06:48:08.286Z,11.15
2023-01-27T06:50:36.016Z,11.22
2023-01-27T06:53:05.609Z,11.00
2023-01-27T06:55:32.533Z,11.19
2023-01-27T06:57:59.040Z,11.02
2023-01-27T07:00:25.716Z,11.03
2023-01-27T07:02:55.498Z,11.28
2023-01-27T07:05:22.304Z,11.20
2023-01-27T07:07:48.937Z,11.24
2023-01-27T07:10:16.158Z,11.21
2023-01-27T07:12:43.031Z,11.29
2023-01-27T07:15:10.513Z,10.92
2023-01-27T07:17:37.618Z,11.27
2023-01-27T07:20:05.734Z,11.09
2023-01-27T07:22:32.591Z,11.27
2023-01-27T07:24:59.358Z,11.33
2023-01-27T07:27:26.399Z,11.47
2023-01-27T07:29:53.055Z,11.33
2023-01-27T07:32:20.063Z,11.40
2023-01-27T07:34:46.663Z,11.38
2023-01-27T07:37:14.027Z,11.55
2023-01-27T07:39:40.993Z,11.53
2023-01-27T07:42:09.188Z,11.42
2023-01-27T07:44:36.936Z,11.38
2023-01-27T07:47:05.487Z,11.52
2023-01-27T07:49:32.345Z,11.43
2023-01-27T07:51:59.029Z,11.35
2023-01-27T07:54:25.564Z,11.22
2023-01-27T07:56:52.112Z,11.43
2023-01-27T07:59:18.717Z,11.51
2023-01-27T08:01:47.882Z,11.67
2023-01-27T08:04:15.293Z,11.88
2023-01-27T08:06:41.830Z,11.95
2023-01-27T08:09:08.617Z,12.00
2023-01-27T08:11:35.593Z,11.94
2023-01-27T08:14:02.572Z,12.05
2023-01-27T08:16:29.305Z,11.87
2023-01-27T08:18:56.798Z,11.75
2023-01-27T08:21:25.164Z,11.73
2023-01-27T08:23:54.667Z,11.49
2023-01-27T08:26:24.975Z,11.43
2023-01-27T08:28:51.688Z,11.50
2023-01-27T08:31:18.312Z,11.59
2023-01-27T08:33:50.022Z,11.76
2023-01-27T08:36:17.941Z,11.76
2023-01-27T08:38:45.358Z,11.77
2023-01-27T08:41:15.156Z,11.71
2023-01-27T08:43:42.108Z,11.76
2023-01-27T08:46:09.636Z,11.82
2023-01-27T08:48:37.027Z,11.63
2023-01-27T08:51:04.718Z,11.55
2023-01-27T08:53:33.106Z,11.60
2023-01-27T08:56:04.965Z,11.50
2023-01-27T08:58:33.228Z,11.56
2023-01-27T09:01:02.168Z,11.31
2023-01-27T09:03:33.535Z,11.58
2023-01-27T09:06:00.749Z,11.63
2023-01-27T09:08:28.343Z,11.71
2023-01-27T09:10:55.167Z,11.53
2023-01-27T09:13:24.724Z,11.50
2023-01-27T09:15:54.523Z,11.64
2023-01-27T09:18:21.349Z,11.85
2023-01-27T09:20:47.984Z,11.93
2023-01-27T09:23:14.584Z,11.91
2023-01-27T09:25:41.190Z,11.99
2023-01-27T09:28:16.627Z,12.05
2023-01-27T09:30:46.208Z,12.14
2023-01-27T09:33:16.955Z,12.10
2023-01-27T09:35:48.319Z,12.28
2023-01-27T09:38:20.334Z,12.21
2023-01-27T09:40:54.937Z,11.95
2023-01-27T09:43:38.249Z,12.10
2023-01-27T09:46:23.565Z,12.13
2023-01-27T09:49:09.356Z,12.07
2023-01-27T09:51:47.892Z,11.87
2023-01-27T09:54:33.985Z,11.89
2023-01-27T09:57:18.030Z,11.73
2023-01-27T10:00:02.815Z,11.87
2023-01-27T10:02:53.151Z,11.81
2023-01-27T10:05:30.270Z,11.92
2023-01-27T10:08:20.216Z,12.03
2023-01-27T10:10:55.864Z,11.82
2023-01-27T10:13:43.830Z,12.09
2023-01-27T10:16:32.181Z,12.01
2023-01-27T10:19:15.411Z,11.82
2023-01-27T10:22:00.221Z,12.16
2023-01-27T10:24:41.093Z,12.32
2023-01-27T10:27:18.019Z,12.30
2023-01-27T10:29:46.622Z,11.96
2023-01-27T10:32:15.879Z,11.98
2023-01-27T10:35:25.050Z,11.93
2023-01-27T10:38:08.197Z,11.87
2023-01-27T10:40:52.944Z,12.06
2023-01-27T10:43:25.575Z,12.14
2023-01-27T10:46:14.082Z,12.07
2023-01-27T10:48:48.222Z,11.91
2023-01-27T10:51:19.477Z,12.18
2023-01-27T10:54:05.628Z,12.38
2023-01-27T10:56:45.335Z,12.49
2023-01-27T10:59:33.927Z,12.21
2023-01-27T11:02:13.746Z,12.38
2023-01-27T11:04:46.854Z,12.76
2023-01-27T11:07:17.609Z,12.89
2023-01-27T11:09:52.474Z,12.80
2023-01-27T11:12:40.671Z,12.77
2023-01-27T11:15:18.832Z,12.73
2023-01-27T11:17:55.073Z,13.25
2023-01-27T11:20:32.154Z,13.01
2023-01-27T11:23:12.882Z,13.20
2023-01-27T11:26:05.826Z,13.22
2023-01-27T11:28:59.881Z,13.16
2023-01-27T11:31:46.597Z,13.08
2023-01-27T11:34:25.670Z,13.21
2023-01-27T11:36:52.753Z,13.49
2023-01-27T11:39:19.712Z,13.56
2023-01-27T11:41:51.003Z,13.66
2023-01-27T11:44:20.609Z,13.58
2023-01-27T11:46:49.152Z,13.82
2023-01-27T11:49:23.750Z,13.48
2023-01-27T11:51:50.277Z,13.47
2023-01-27T11:54:29.317Z,13.74
2023-01-27T11:56:55.915Z,13.58
2023-01-27T11:59:38.388Z,13.88
2023-01-27T12:02:08.156Z,13.69
2023-01-27T12:05:14.340Z,13.31
2023-01-27T12:07:44.216Z,13.31
2023-01-27T12:10:31.418Z,13.33
2023-01-27T12:13:01.499Z,13.35
2023-01-27T12:15:30.701Z,13.36
2023-01-27T12:18:03.359Z,13.24
2023-01-27T12:20:40.404Z,13.25
2023-01-27T12:23:23.942Z,13.26
2023-01-27T12:25:57.236Z,13.18
2023-01-27T12:28:37.555Z,13.35
2023-01-27T12:31:13.793Z,13.55
2023-01-27T12:33:45.676Z,13.49
2023-01-27T12:36:18.050Z,13.57
2023-01-27T12:39:02.929Z,13.55
2023-01-27T12:41:34.176Z,13.58
2023-01-27T12:44:29.943Z,13.64
2023-01-27T12:47:03.658Z,13.70
2023-01-27T12:49:34.890Z,13.39
2023-01-27T12:52:04.812Z,13.00
2023-01-27T12:54:32.793Z,13.09
2023-01-27T12:57:06.752Z,12.98
2023-01-27T12:59:34.202Z,12.63
2023-01-27T13:02:16.550Z,12.65
2023-01-27T13:04:45.141Z,12.46
2023-01-27T13:07:17.378Z,12.34
2023-01-27T13:10:00.775Z,12.43
2023-01-27T13:12:32.447Z,12.44
2023-01-27T13:15:08.583Z,12.47
2023-01-27T13:17:37.422Z,12.66
2023-01-27T13:20:14.898Z,12.58
2023-01-27T13:22:48.248Z,12.52
2023-01-27T13:25:23.181Z,12.70
2023-01-27T13:27:54.157Z,12.66
2023-01-27T13:30:30.144Z,12.79
2023-01-27T13:33:04.040Z,12.78
2023-01-27T13:35:57.476Z,12.71
2023-01-27T13:38:44.955Z,12.72
2023-01-27T13:41:20.810Z,12.50
2023-01-27T13:44:29.211Z,12.20
2023-01-27T13:47:00.206Z,12.27
2023-01-27T13:49:48.205Z,12.26
2023-01-27T13:52:14.981Z,12.37
2023-01-27T13:54:41.779Z,12.49
2023-01-27T13:57:48.281Z,12.53
2023-01-27T14:00:33.589Z,12.74
2023-01-27T14:03:19.805Z,12.79
2023-01-27T14:06:02.727Z,12.65
2023-01-27T14:08:49.949Z,12.77
2023-01-27T14:11:31.625Z,12.89
2023-01-27T14:14:07.410Z,12.74
2023-01-27T14:17:08.131Z,12.67
2023-01-27T14:19:44.577Z,12.94
2023-01-27T14:22:28.902Z,13.32
2023-01-27T14:24:57.859Z,13.03
2023-01-27T14:30:28.393Z,13.13
2023-01-27T14:33:03.494Z,12.94
2023-01-27T14:35:44.037Z,12.99
2023-01-27T14:38:28.972Z,12.80
2023-01-27T14:41:14.202Z,12.78
2023-01-27T14:44:17.792Z,12.77
2023-01-27T14:47:00.744Z,12.85
2023-01-27T14:50:10.172Z,12.86
2023-01-27T14:52:58.318Z,12.85
2023-01-27T14:55:55.575Z,12.88
2023-01-27T14:58:40.968Z,12.80
2023-01-27T15:01:25.068Z,12.78
2023-01-27T15:04:07.994Z,12.79
2023-01-27T15:06:47.885Z,12.73
2023-01-27T15:09:54.247Z,12.76
2023-01-27T15:12:34.553Z,12.56
2023-01-27T15:15:07.615Z,12.85
2023-01-27T15:17:54.208Z,12.80
2023-01-27T15:20:39.230Z,13.01
2023-01-27T15:23:43.988Z,13.11
2023-01-27T15:26:12.729Z,12.94
2023-01-27T15:28:41.873Z,12.83
2023-01-27T15:31:14.972Z,13.09
2023-01-27T15:33:52.232Z,12.94
2023-01-27T15:36:27.776Z,12.62
2023-01-27T15:39:09.752Z,12.72
2023-01-27T15:41:36.410Z,12.91
2023-01-27T15:44:33.295Z,13.03
2023-01-27T15:47:09.353Z,13.05
2023-01-27T15:49:58.188Z,13.15
2023-01-27T15:52:27.359Z,13.25
2023-01-27T15:54:56.078Z,12.99
2023-01-27T15:57:33.978Z,12.74
2023-01-27T16:00:11.814Z,12.50
2023-01-27T16:02:44.800Z,12.51
2023-01-27T16:05:25.640Z,12.73
2023-01-27T16:07:54.570Z,12.74
2023-01-27T16:10:24.344Z,12.61
2023-01-27T16:13:19.261Z,12.60
2023-01-27T16:15:46.545Z,12.68
2023-01-27T16:18:13.159Z,12.65
2023-01-27T16:20:48.883Z,12.40
2023-01-27T16:23:24.446Z,12.38
2023-01-27T16:26:08.469Z,12.50
2023-01-27T16:28:37.395Z,12.90
2023-01-27T16:31:17.142Z,13.13
2023-01-27T16:33:51.377Z,13.26
2023-01-27T16:36:26.954Z,13.18
2023-01-27T16:38:57.710Z,13.30
2023-01-27T16:41:36.042Z,13.38
2023-01-27T16:44:06.805Z,13.40
2023-01-27T16:46:39.329Z,13.45
2023-01-27T16:49:18.551Z,13.01
2023-01-27T16:51:45.888Z,12.95
2023-01-27T16:54:24.560Z,12.77
2023-01-27T16:56:52.052Z,12.68
2023-01-27T16:59:22.684Z,13.21
2023-01-27T17:01:53.046Z,13.33
2023-01-27T17:04:23.816Z,13.45
2023-01-27T17:06:52.761Z,13.33
2023-01-27T17:09:24.873Z,13.36
2023-01-27T17:11:53.470Z,13.19
2023-01-27T17:14:30.333Z,13.03
2023-01-27T17:17:03.256Z,13.37
2023-01-27T17:19:39.191Z,13.20
2023-01-27T17:22:11.174Z,13.01
2023-01-27T17:24:50.660Z,12.53
2023-01-27T17:27:31.130Z,12.39
2023-01-27T17:30:05.036Z,12.29
2023-01-27T17:32:38.871Z,12.35
2023-01-27T17:35:20.900Z,12.73
2023-01-27T17:37:47.545Z,13.02
2023-01-27T17:40:23.150Z,12.38
2023-01-27T17:42:49.821Z,12.23
2023-01-27T17:45:27.024Z,12.23
2023-01-27T17:47:57.378Z,12.44
2023-01-27T17:50:28.093Z,12.42
2023-01-27T17:52:56.989Z,12.42
2023-01-27T17:55:25.565Z,12.31
2023-01-27T17:58:04.216Z,12.23
2023-01-27T18:00:35.374Z,12.49
2023-01-27T18:03:03.736Z,12.39
2023-01-27T18:05:33.322Z,12.14
2023-01-27T18:08:01.400Z,12.18
2023-01-27T18:10:44.036Z,12.15
2023-01-27T18:13:20.151Z,12.11
2023-01-27T18:15:58.894Z,11.95
2023-01-27T18:18:26.472Z,11.88
2023-01-27T18:20:58.791Z,11.97
2023-01-27T18:23:35.519Z,11.80
2023-01-27T18:26:07.907Z,12.23
2023-01-27T18:28:37.296Z,12.11
2023-01-27T18:31:05.226Z,12.16
2023-01-27T18:33:36.821Z,12.21
2023-01-27T18:36:04.195Z,12.34
2023-01-27T18:38:36.026Z,12.07
2023-01-27T18:41:10.346Z,11.91
2023-01-27T18:43:36.910Z,12.08
2023-01-27T18:46:09.306Z,12.08
2023-01-27T18:48:37.804Z,12.05
2023-01-27T18:51:13.475Z,11.98
2023-01-27T18:53:40.543Z,12.08
2023-01-27T18:56:08.082Z,11.94
2023-01-27T18:58:35.840Z,11.92
2023-01-27T19:01:03.768Z,11.74
2023-01-27T19:03:34.440Z,11.80
2023-01-27T19:06:01.322Z,11.67
2023-01-27T19:08:27.928Z,11.79
2023-01-27T19:10:54.463Z,11.87
2023-01-27T19:13:21.302Z,11.98
2023-01-27T19:15:51.458Z,12.06
2023-01-27T19:18:26.309Z,12.11
2023-01-27T19:20:53.271Z,11.88
2023-01-27T19:23:21.023Z,11.98
2023-01-27T19:25:51.205Z,11.90
2023-01-27T19:28:24.062Z,11.77
2023-01-27T19:30:50.667Z,12.13
2023-01-27T19:33:19.456Z,12.09
2023-01-27T19:35:50.514Z,11.92
2023-01-27T19:38:17.223Z,11.96
2023-01-27T19:40:43.720Z,11.98
2023-01-27T19:43:14.629Z,11.93
2023-01-27T19:45:42.782Z,12.01
2023-01-27T19:48:17.972Z,12.14
2023-01-27T19:50:45.215Z,12.05
2023-01-27T19:53:13.393Z,12.02
2023-01-27T19:55:40.506Z,12.07
2023-01-27T19:58:06.991Z,11.83
2023-01-27T20:00:36.549Z,11.96
2023-01-27T20:03:04.001Z,12.11
2023-01-27T20:05:34.090Z,12.39
2023-01-27T20:08:02.284Z,12.29
2023-01-27T20:10:32.392Z,12.30
2023-01-27T20:13:04.444Z,12.20
2023-01-27T20:15:42.410Z,12.44
2023-01-27T20:18:12.983Z,12.23
2023-01-27T20:20:39.499Z,12.33
2023-01-27T20:23:06.271Z,12.17
2023-01-27T20:25:34.002Z,12.13
2023-01-27T20:28:01.206Z,12.14
2023-01-27T20:30:33.018Z,12.17
2023-01-27T20:33:01.585Z,12.30
2023-01-27T20:35:28.587Z,12.18
2023-01-27T20:37:55.204Z,12.10
2023-01-27T20:40:24.449Z,12.53
2023-01-27T20:42:51.513Z,12.69
2023-01-27T20:45:19.093Z,12.52
2023-01-27T20:47:50.683Z,12.59
2023-01-27T20:50:18.116Z,12.40
2023-01-27T20:52:44.891Z,12.07
2023-01-27T20:55:13.915Z,11.80
2023-01-27T20:57:40.898Z,11.78
2023-01-27T21:00:08.933Z,11.80
2023-01-27T21:02:35.661Z,11.92
2023-01-27T21:05:02.265Z,12.21
2023-01-27T21:07:28.860Z,11.66
2023-01-27T21:09:55.539Z,11.54
2023-01-27T21:12:22.484Z,11.43
2023-01-27T21:14:49.108Z,11.53
2023-01-27T21:17:16.256Z,11.67
2023-01-27T21:19:42.909Z,11.80
2023-01-27T21:22:09.420Z,11.75
2023-01-27T21:24:36.727Z,11.69
2023-01-27T21:27:03.904Z,11.72
2023-01-27T21:29:30.874Z,11.87
2023-01-27T21:31:57.533Z,10.78
2023-01-27T21:34:24.152Z,10.42
2023-01-27T21:36:50.721Z,10.23
2023-01-27T21:39:17.357Z,10.08
2023-01-27T21:41:52.633Z,10.47
2023-01-27T21:44:42.025Z,10.61
2023-01-27T21:47:11.951Z,10.57
2023-01-27T21:49:58.770Z,10.65
2023-01-27T21:52:36.451Z,10.43
2023-01-27T21:55:05.268Z,10.56
2023-01-27T21:57:32.102Z,10.90
2023-01-27T21:59:58.746Z,10.86
2023-01-27T22:02:25.705Z,10.89
2023-01-27T22:04:52.635Z,10.90
2023-01-27T22:07:19.286Z,10.68
2023-01-27T22:09:46.211Z,10.63
2023-01-27T22:12:15.412Z,10.66
2023-01-27T22:14:42.762Z,10.81
2023-01-27T22:17:09.477Z,11.09
2023-01-27T22:19:37.804Z,10.83
2023-01-27T22:22:04.757Z,11.00
2023-01-27T22:24:31.343Z,10.66
2023-01-27T22:26:57.923Z,10.42
2023-01-27T22:29:24.743Z,10.43
2023-01-27T22:31:51.319Z,10.47
2023-01-27T22:34:17.982Z,10.03
2023-01-27T22:36:44.614Z,10.41
2023-01-27T22:39:11.564Z,10.20
2023-01-27T22:41:38.184Z,10.22
2023-01-27T22:44:04.904Z,10.40
2023-01-27T22:46:31.428Z,10.28
2023-01-27T22:48:58.013Z,10.18
2023-01-27T22:51:24.729Z,10.22
2023-01-27T22:53:51.385Z,10.33
2023-01-27T22:56:17.973Z,10.30
2023-01-27T22:58:44.564Z,10.52
2023-01-27T23:01:11.060Z,10.54
2023-01-27T23:03:38.035Z,10.40
2023-01-27T23:06:08.651Z,10.43
2023-01-27T23:08:35.983Z,10.12
2023-01-27T23:11:05.792Z,10.33
2023-01-27T23:13:33.688Z,10.05
2023-01-27T23:16:00.624Z,10.07
2023-01-27T23:18:27.425Z,10.00
2023-01-27T23:20:54.119Z,10.23
2023-01-27T23:23:22.627Z,9.99
2023-01-27T23:25:49.168Z,9.69
2023-01-27T23:28:19.247Z,9.99
2023-01-27T23:30:48.810Z,9.92
2023-01-27T23:33:17.526Z,9.81
2023-01-27T23:35:44.921Z,9.69
2023-01-27T23:38:26.398Z,10.09
2023-01-27T23:41:08.685Z,10.22
2023-01-27T23:43:35.279Z,10.43
2023-01-27T23:46:02.003Z,10.18
2023-01-27T23:48:28.975Z,10.15
2023-01-27T23:50:56.071Z,10.20
2023-01-27T23:53:22.757Z,10.23
2023-01-27T23:55:57.673Z,9.67
2023-01-27T23:58:25.541Z,9.43
